Time;durP1;ratioP1;P1;durP2;ratioP2;P2;SDS_P1;SDS_P2;PMS_P1;PMS_P2;Temp;Humidity;BMP_temperature;BMP_pressure;BME280_temperature;BME280_humidity;BME280_pressure;Samples;Min_cycle;Max_cycle;Signal;HPM_P1;HPM_P2
2023/10/17 00:01:18;;;;;;;22.53;13.73;;;;;;;;;;4973246;28;20591;-75
2023/10/17 00:03:47;;;;;;;22.97;15.57;;;;;;;;;;4973611;28;20460;-75
2023/10/17 00:06:16;;;;;;;25.07;15.43;;;;;;;;;;4998087;28;20457;-75
2023/10/17 00:08:43;;;;;;;27.27;17.17;;;;;;;;;;4973073;28;20476;-75
2023/10/17 00:11:15;;;;;;;23.63;16.33;;;;;;;;;;4973190;28;20480;-75
2023/10/17 00:13:59;;;;;;;22.70;14.43;;;;;;;;;;4974006;28;20453;-75
2023/10/17 00:16:29;;;;;;;30.73;16.77;;;;;;;;;;4998169;28;20465;-75
2023/10/17 00:19:04;;;;;;;25.20;15.10;;;;;;;;;;4972978;28;20465;-75
2023/10/17 00:21:32;;;;;;;24.30;15.90;;;;;;;;;;4973209;28;20504;-75
2023/10/17 00:24:08;;;;;;;24.70;13.70;;;;;;;;;;5040190;28;20471;-75
2023/10/17 00:26:35;;;;;;;21.43;15.03;;;;;;;;;;4973442;28;20465;-75
2023/10/17 00:29:05;;;;;;;22.20;14.70;;;;;;;;;;4972929;28;20453;-75
2023/10/17 00:31:32;;;;;;;20.67;13.83;;;;;;;;;;4974611;28;20507;-75
2023/10/17 00:34:12;;;;;;;20.20;14.07;;;;;;;;;;4973057;28;21020;-75
2023/10/17 00:36:47;;;;;;;23.33;14.87;;;;;;;;;;4972952;28;20838;-75
2023/10/17 00:39:17;;;;;;;23.10;13.30;;;;;;;;;;4972847;28;20514;-75
2023/10/17 00:41:50;;;;;;;21.60;13.83;;;;;;;;;;4972857;28;20492;-75
2023/10/17 00:44:30;;;;;;;17.17;13.07;;;;;;;;;;4972887;28;20951;-75
2023/10/17 00:46:57;;;;;;;21.77;13.00;;;;;;;;;;4965782;28;20456;-75
2023/10/17 00:49:26;;;;;;;24.43;15.00;;;;;;;;;;4972627;28;20467;-75
2023/10/17 00:51:55;;;;;;;27.10;14.80;;;;;;;;;;4965339;28;20488;-75
2023/10/17 00:54:24;;;;;;;22.00;14.70;;;;;;;;;;4972419;28;20468;-75
2023/10/17 00:56:54;;;;;;;19.23;13.50;;;;;;;;;;4972667;28;20461;-75
2023/10/17 00:59:24;;;;;;;23.93;14.43;;;;;;;;;;4972471;28;20457;-75
2023/10/17 01:01:51;;;;;;;23.50;13.63;;;;;;;;;;4972485;28;20513;-75
2023/10/17 01:04:19;;;;;;;20.27;13.80;;;;;;;;;;4972724;28;20522;-75
2023/10/17 01:06:54;;;;;;;21.83;12.80;;;;;;;;;;4972509;28;20990;-75
2023/10/17 01:09:24;;;;;;;18.63;10.53;;;;;;;;;;4972344;28;20485;-75
2023/10/17 01:11:54;;;;;;;19.77;11.03;;;;;;;;;;4964099;28;20482;-75
2023/10/17 01:14:23;;;;;;;14.83;9.73;;;;;;;;;;4971918;28;20883;-75
2023/10/17 01:16:52;;;;;;;14.57;11.00;;;;;;;;;;4972376;28;20518;-75
2023/10/17 01:19:21;;;;;;;17.73;10.20;;;;;;;;;;4972181;28;20453;-75
2023/10/17 01:21:50;;;;;;;16.70;11.70;;;;;;;;;;4972167;28;20508;-75
2023/10/17 01:24:18;;;;;;;18.57;11.57;;;;;;;;;;4972193;28;20828;-75
2023/10/17 01:26:46;;;;;;;17.20;9.97;;;;;;;;;;4972107;28;20477;-75
2023/10/17 01:29:18;;;;;;;13.33;10.83;;;;;;;;;;4971924;28;20879;-75
2023/10/17 01:31:48;;;;;;;16.20;10.67;;;;;;;;;;4972033;28;20477;-75
2023/10/17 01:34:18;;;;;;;17.07;9.93;;;;;;;;;;4972277;28;20978;-75
2023/10/17 01:36:47;;;;;;;20.20;10.00;;;;;;;;;;4971856;28;20463;-75
2023/10/17 01:39:15;;;;;;;17.83;10.50;;;;;;;;;;4971737;28;20457;-75
2023/10/17 01:41:46;;;;;;;27.00;11.63;;;;;;;;;;4971737;28;20829;-75
2023/10/17 01:44:14;;;;;;;16.07;9.53;;;;;;;;;;4971947;28;20518;-75
2023/10/17 01:46:43;;;;;;;20.43;12.60;;;;;;;;;;4972033;28;20896;-75
2023/10/17 01:49:12;;;;;;;17.00;11.63;;;;;;;;;;4971781;28;20496;-75
2023/10/17 01:51:43;;;;;;;17.20;10.87;;;;;;;;;;4972765;28;20855;-75
2023/10/17 01:54:12;;;;;;;18.40;10.00;;;;;;;;;;4971933;28;20519;-75
2023/10/17 01:56:40;;;;;;;17.00;9.20;;;;;;;;;;4955270;28;20494;-75
2023/10/17 01:59:13;;;;;;;17.37;11.43;;;;;;;;;;4971717;28;20473;-75
2023/10/17 02:01:40;;;;;;;16.90;10.97;;;;;;;;;;4971570;28;20554;-75
2023/10/17 02:04:13;;;;;;;14.57;9.63;;;;;;;;;;4971889;28;20477;-75
2023/10/17 02:06:40;;;;;;;17.70;10.50;;;;;;;;;;4971900;28;20456;-75
2023/10/17 02:09:22;;;;;;;15.00;10.20;;;;;;;;;;4971770;28;20457;-75
2023/10/17 02:11:51;;;;;;;15.07;10.00;;;;;;;;;;4971762;28;20477;-75
2023/10/17 02:14:20;;;;;;;15.23;10.37;;;;;;;;;;4971759;28;20957;-75
2023/10/17 02:16:48;;;;;;;12.57;9.20;;;;;;;;;;4971563;28;20514;-75
2023/10/17 02:19:19;;;;;;;16.30;11.70;;;;;;;;;;4971413;28;20457;-75
2023/10/17 02:21:49;;;;;;;14.53;9.87;;;;;;;;;;4971612;28;20508;-75
2023/10/17 02:24:19;;;;;;;16.23;10.53;;;;;;;;;;4971350;28;20553;-75
2023/10/17 02:26:54;;;;;;;13.43;8.27;;;;;;;;;;4971470;28;20925;-75
2023/10/17 02:29:24;;;;;;;15.00;8.67;;;;;;;;;;4971093;28;20955;-75
2023/10/17 02:31:52;;;;;;;13.50;8.37;;;;;;;;;;4963336;28;20993;-75
2023/10/17 02:34:22;;;;;;;13.40;8.17;;;;;;;;;;4971469;28;20829;-75
2023/10/17 02:36:49;;;;;;;12.43;8.90;;;;;;;;;;4971302;28;20456;-75
2023/10/17 02:39:16;;;;;;;17.60;9.83;;;;;;;;;;4971053;28;20453;-75
2023/10/17 02:41:46;;;;;;;18.57;11.47;;;;;;;;;;4953700;28;20492;-75
2023/10/17 02:44:18;;;;;;;15.97;9.77;;;;;;;;;;4971343;28;20461;-75
2023/10/17 02:46:47;;;;;;;12.70;9.57;;;;;;;;;;4971073;28;20457;-75
2023/10/17 02:49:16;;;;;;;15.63;9.83;;;;;;;;;;4970856;28;20465;-75
2023/10/17 02:51:43;;;;;;;15.30;8.37;;;;;;;;;;4970905;28;20481;-75
2023/10/17 02:54:13;;;;;;;12.30;8.20;;;;;;;;;;4970882;28;20947;-75
2023/10/17 02:56:47;;;;;;;13.50;8.20;;;;;;;;;;4971022;28;20839;-75
2023/10/17 02:59:17;;;;;;;13.07;9.40;;;;;;;;;;4970808;28;20457;-75
2023/10/17 03:01:52;;;;;;;12.10;8.50;;;;;;;;;;4970853;28;20503;-75
2023/10/17 03:04:24;;;;;;;13.50;9.13;;;;;;;;;;4970904;28;20502;-75
2023/10/17 03:06:55;;;;;;;13.00;9.03;;;;;;;;;;4970959;28;20452;-75
2023/10/17 03:09:38;;;;;;;20.30;9.30;;;;;;;;;;4970785;28;20445;-75
2023/10/17 03:12:10;;;;;;;12.77;9.07;;;;;;;;;;4964836;28;20858;-75
2023/10/17 03:15:17;;;;;;;16.70;9.63;;;;;;;;;;4971220;28;20955;-75
2023/10/17 03:17:27;;;;;;;18.60;10.80;;;;;;;;;;4970916;28;20499;-76
2023/10/17 03:19:57;;;;;;;12.67;8.77;;;;;;;;;;4970948;28;21030;-75
2023/10/17 03:22:24;;;;;;;14.43;9.50;;;;;;;;;;4970671;28;20915;-75
2023/10/17 03:25:00;;;;;;;12.97;9.57;;;;;;;;;;4963029;28;20457;-75
2023/10/17 03:27:27;;;;;;;19.40;8.97;;;;;;;;;;4970773;28;20970;-75
2023/10/17 03:29:54;;;;;;;12.10;8.67;;;;;;;;;;4970545;28;20503;-75
2023/10/17 03:32:23;;;;;;;11.90;8.87;;;;;;;;;;4969127;28;20485;-76
2023/10/17 03:34:56;;;;;;;11.17;8.00;;;;;;;;;;4970602;28;20468;-76
2023/10/17 03:37:28;;;;;;;13.30;8.87;;;;;;;;;;4972532;28;20476;-76
2023/10/17 03:39:55;;;;;;;15.70;8.93;;;;;;;;;;4966150;28;20551;-76
2023/10/17 03:42:44;;;;;;;15.43;8.87;;;;;;;;;;4973480;28;20959;-76
2023/10/17 03:45:23;;;;;;;14.70;8.43;;;;;;;;;;4973544;28;20487;-76
2023/10/17 03:47:54;;;;;;;12.80;9.83;;;;;;;;;;4974002;28;20456;-75
2023/10/17 03:50:34;;;;;;;19.00;10.40;;;;;;;;;;4973506;28;20510;-76
2023/10/17 03:53:07;;;;;;;14.17;8.80;;;;;;;;;;4967121;28;21026;-75
2023/10/17 03:55:36;;;;;;;15.03;9.00;;;;;;;;;;4973739;28;20810;-75
2023/10/17 03:58:19;;;;;;;10.97;7.23;;;;;;;;;;4973558;28;20509;-75
2023/10/17 04:00:46;;;;;;;11.77;8.17;;;;;;;;;;4973476;28;20516;-75
2023/10/17 04:03:21;;;;;;;13.07;9.60;;;;;;;;;;4973152;28;20587;-75
2023/10/17 04:05:50;;;;;;;14.30;9.30;;;;;;;;;;4973509;28;20539;-75
2023/10/17 04:08:26;;;;;;;11.10;8.40;;;;;;;;;;4973186;28;20900;-75
2023/10/17 04:11:08;;;;;;;15.27;9.37;;;;;;;;;;4973290;28;20472;-75
2023/10/17 04:13:35;;;;;;;13.73;10.30;;;;;;;;;;4973566;28;20809;-75
2023/10/17 04:16:09;;;;;;;15.40;10.90;;;;;;;;;;4973295;28;20465;-75
2023/10/17 04:18:37;;;;;;;13.30;9.10;;;;;;;;;;4973074;28;20504;-75
2023/10/17 04:21:16;;;;;;;10.47;7.90;;;;;;;;;;4973358;28;20498;-75
2023/10/17 04:23:45;;;;;;;11.37;8.77;;;;;;;;;;4973235;28;20998;-75
2023/10/17 04:26:18;;;;;;;15.97;8.90;;;;;;;;;;4973145;28;20518;-75
2023/10/17 04:28:49;;;;;;;13.37;8.73;;;;;;;;;;4973341;28;20822;-76
2023/10/17 04:31:24;;;;;;;13.63;8.10;;;;;;;;;;4973095;28;20476;-75
2023/10/17 04:33:56;;;;;;;12.53;8.93;;;;;;;;;;4965316;28;20461;-76
2023/10/17 04:36:23;;;;;;;10.10;7.60;;;;;;;;;;4973006;28;20492;-75
2023/10/17 04:41:44;;;;;;;13.27;7.63;;;;;;;;;;4972398;28;20569;-76
2023/10/17 04:44:16;;;;;;;16.30;7.30;;;;;;;;;;4972870;28;20497;-75
2023/10/17 04:46:50;;;;;;;11.10;8.30;;;;;;;;;;4973412;28;20484;-75
2023/10/17 04:49:21;;;;;;;12.00;8.57;;;;;;;;;;4971720;28;20461;-76
2023/10/17 04:51:52;;;;;;;15.53;9.80;;;;;;;;;;4972800;28;20508;-75
2023/10/17 04:54:31;;;;;;;16.70;8.90;;;;;;;;;;4972615;28;20465;-75
2023/10/17 04:56:59;;;;;;;14.07;8.93;;;;;;;;;;4965619;28;20472;-76
2023/10/17 04:59:51;;;;;;;14.27;9.73;;;;;;;;;;4972439;28;20445;-76
2023/10/17 05:02:36;;;;;;;14.80;9.23;;;;;;;;;;4967921;28;20484;-76
2023/10/17 05:08:11;;;;;;;14.90;8.70;;;;;;;;;;4972711;28;20490;-75
2023/10/17 06:16:52;;;;;;;11.30;7.27;;;;;;;;;;4970421;28;20460;-75
2023/10/17 06:19:22;;;;;;;10.60;7.13;;;;;;;;;;4970625;28;20923;-75
2023/10/17 06:24:46;;;;;;;15.00;6.23;;;;;;;;;;4969179;28;20969;-75
2023/10/17 06:27:43;;;;;;;12.77;7.37;;;;;;;;;;4970364;28;20972;-75
2023/10/17 06:33:04;;;;;;;6.67;5.67;;;;;;;;;;4970107;28;20507;-75
2023/10/17 06:35:31;;;;;;;5.57;4.67;;;;;;;;;;4970273;28;20468;-74
2023/10/17 06:37:59;;;;;;;8.40;4.80;;;;;;;;;;4970447;28;20947;-75
2023/10/17 06:40:33;;;;;;;10.77;7.53;;;;;;;;;;4969936;28;20457;-75
2023/10/17 06:43:01;;;;;;;7.60;5.63;;;;;;;;;;4963524;28;20866;-75
2023/10/17 06:45:36;;;;;;;6.80;5.23;;;;;;;;;;4970011;28;20456;-75
2023/10/17 06:48:08;;;;;;;10.47;6.20;;;;;;;;;;4970420;28;20470;-74
2023/10/17 06:53:34;;;;;;;9.00;6.10;;;;;;;;;;4972988;28;20989;-74
2023/10/17 06:56:09;;;;;;;6.80;5.17;;;;;;;;;;4970056;28;20471;-74
2023/10/17 06:58:36;;;;;;;6.30;4.90;;;;;;;;;;4969819;28;20457;-74
2023/10/17 07:01:05;;;;;;;5.63;4.87;;;;;;;;;;4969435;28;20584;-74
2023/10/17 07:03:35;;;;;;;7.83;5.50;;;;;;;;;;4970222;28;20503;-74
2023/10/17 07:06:11;;;;;;;10.80;5.90;;;;;;;;;;4970305;28;20469;-74
2023/10/17 07:08:39;;;;;;;10.50;6.80;;;;;;;;;;4969570;28;20457;-74
2023/10/17 07:11:24;;;;;;;8.50;5.80;;;;;;;;;;4970143;28;20906;-74
2023/10/17 07:13:54;;;;;;;11.03;5.37;;;;;;;;;;4970877;28;20481;-74
2023/10/17 07:16:26;;;;;;;11.70;6.73;;;;;;;;;;4971605;28;20465;-74
2023/10/17 07:19:09;;;;;;;10.87;6.80;;;;;;;;;;4963861;28;20460;-74
2023/10/17 07:21:55;;;;;;;10.27;6.20;;;;;;;;;;4971857;28;20495;-74
2023/10/17 07:24:23;;;;;;;7.23;6.30;;;;;;;;;;4971378;28;20496;-74
2023/10/17 07:26:54;;;;;;;9.57;5.87;;;;;;;;;;4972011;28;21154;-74
2023/10/17 07:29:23;;;;;;;9.93;7.00;;;;;;;;;;4971529;28;20560;-74
2023/10/17 07:31:52;;;;;;;12.67;5.27;;;;;;;;;;4954353;28;20579;-74
2023/10/17 07:34:22;;;;;;;9.23;7.27;;;;;;;;;;4976654;28;20966;-74
2023/10/17 07:36:50;;;;;;;10.90;6.67;;;;;;;;;;4953892;28;20468;-74
2023/10/17 07:39:24;;;;;;;12.20;7.30;;;;;;;;;;4971622;28;20978;-74
2023/10/17 07:41:55;;;;;;;13.03;6.30;;;;;;;;;;4971144;28;20475;-74
2023/10/17 07:44:25;;;;;;;10.43;7.80;;;;;;;;;;4971149;28;20496;-74
2023/10/17 07:47:07;;;;;;;6.33;5.67;;;;;;;;;;4971267;28;20460;-74
2023/10/17 07:49:36;;;;;;;6.93;6.23;;;;;;;;;;4970786;28;20853;-74
2023/10/17 07:52:10;;;;;;;8.80;5.70;;;;;;;;;;4995999;28;20485;-74
2023/10/17 07:54:45;;;;;;;13.47;5.70;;;;;;;;;;4971375;28;20866;-73
2023/10/17 07:57:17;;;;;;;8.07;5.73;;;;;;;;;;4966689;28;20915;-74
2023/10/17 07:59:50;;;;;;;9.13;6.43;;;;;;;;;;4970200;28;20540;-74
2023/10/17 08:02:20;;;;;;;10.53;7.90;;;;;;;;;;4970914;28;21010;-74
2023/10/17 08:04:49;;;;;;;7.20;5.73;;;;;;;;;;4971124;28;20595;-74
2023/10/17 08:07:20;;;;;;;12.20;6.07;;;;;;;;;;4970935;28;20518;-74
2023/10/17 08:09:56;;;;;;;8.33;5.20;;;;;;;;;;4970906;28;20477;-74
2023/10/17 08:12:23;;;;;;;10.00;5.10;;;;;;;;;;4971001;28;20469;-73
2023/10/17 08:14:57;;;;;;;6.20;5.30;;;;;;;;;;4971272;28;20831;-73
2023/10/17 08:17:27;;;;;;;7.60;6.27;;;;;;;;;;4971369;28;20530;-72
2023/10/17 08:20:10;;;;;;;10.97;6.10;;;;;;;;;;4970715;28;20493;-73
2023/10/17 08:22:54;;;;;;;12.00;6.03;;;;;;;;;;4971038;28;20485;-73
2023/10/17 08:25:31;;;;;;;8.80;5.90;;;;;;;;;;4953548;28;20456;-73
2023/10/17 08:28:03;;;;;;;8.80;5.90;;;;;;;;;;4971280;28;20934;-73
2023/10/17 08:30:38;;;;;;;9.60;5.63;;;;;;;;;;4971136;28;20906;-73
2023/10/17 08:33:11;;;;;;;7.70;5.77;;;;;;;;;;4970849;28;20677;-73
2023/10/17 08:35:51;;;;;;;7.30;5.73;;;;;;;;;;4970966;28;20453;-73
2023/10/17 08:38:17;;;;;;;5.57;4.80;;;;;;;;;;4970484;28;20895;-73
2023/10/17 08:40:49;;;;;;;7.57;4.60;;;;;;;;;;4970852;28;20477;-73
2023/10/17 08:43:16;;;;;;;4.83;3.93;;;;;;;;;;4970817;28;21081;-73
2023/10/17 08:45:47;;;;;;;5.50;4.60;;;;;;;;;;4971151;28;20465;-73
2023/10/17 08:48:14;;;;;;;7.90;5.37;;;;;;;;;;4970752;28;20865;-73
2023/10/17 08:50:43;;;;;;;8.03;4.33;;;;;;;;;;4970912;28;20487;-73
2023/10/17 08:53:13;;;;;;;6.23;5.60;;;;;;;;;;4970480;28;20468;-72
2023/10/17 08:55:43;;;;;;;7.63;5.20;;;;;;;;;;4970802;28;20858;-73
2023/10/17 08:58:10;;;;;;;6.83;5.00;;;;;;;;;;4970226;28;20453;-73
2023/10/17 09:00:55;;;;;;;9.50;5.30;;;;;;;;;;4970142;28;20472;-72
2023/10/17 09:03:24;;;;;;;5.90;4.70;;;;;;;;;;4970073;28;20493;-73
2023/10/17 09:06:05;;;;;;;8.20;5.37;;;;;;;;;;4970270;28;20453;-72
2023/10/17 09:08:49;;;;;;;5.47;4.60;;;;;;;;;;4970225;28;20441;-73
2023/10/17 09:11:29;;;;;;;7.73;4.93;;;;;;;;;;4970658;28;20983;-73
2023/10/17 09:17:10;;;;;;;5.60;5.03;;;;;;;;;;4910639;29;20539;-73
2023/10/17 09:19:45;;;;;;;5.10;4.60;;;;;;;;;;4962538;28;20794;-73
2023/10/17 09:22:15;;;;;;;5.67;5.03;;;;;;;;;;4970258;28;20838;-73
2023/10/17 09:24:45;;;;;;;9.20;5.30;;;;;;;;;;4969988;28;20566;-73
2023/10/17 09:27:14;;;;;;;7.83;5.97;;;;;;;;;;4970434;28;20498;-73
2023/10/17 09:29:49;;;;;;;9.50;5.07;;;;;;;;;;4952730;28;20457;-73
2023/10/17 09:32:31;;;;;;;7.63;5.70;;;;;;;;;;4969902;28;20492;-73
2023/10/17 09:34:58;;;;;;;8.73;6.13;;;;;;;;;;4951119;28;20803;-73
2023/10/17 09:37:27;;;;;;;5.47;4.97;;;;;;;;;;4966356;28;20800;-73
2023/10/17 09:39:55;;;;;;;5.90;5.17;;;;;;;;;;4969664;28;20453;-73
2023/10/17 09:42:22;;;;;;;8.43;5.93;;;;;;;;;;4969925;28;20723;-73
2023/10/17 09:44:50;;;;;;;10.83;5.30;;;;;;;;;;4952385;28;20484;-72
2023/10/17 09:47:20;;;;;;;6.63;5.30;;;;;;;;;;4969544;28;20480;-73
2023/10/17 09:49:49;;;;;;;9.23;5.97;;;;;;;;;;4970391;28;20919;-73
2023/10/17 09:52:23;;;;;;;8.83;6.10;;;;;;;;;;4969779;28;20829;-72
2023/10/17 09:54:52;;;;;;;7.87;5.87;;;;;;;;;;4969032;28;20499;-73
2023/10/17 09:57:21;;;;;;;7.57;6.13;;;;;;;;;;4969900;28;20981;-73
2023/10/17 09:59:59;;;;;;;8.27;5.80;;;;;;;;;;4952124;28;20505;-73
2023/10/17 10:02:27;;;;;;;9.17;7.30;;;;;;;;;;4970098;28;20923;-73
2023/10/17 10:04:54;;;;;;;10.10;5.20;;;;;;;;;;4970595;28;20511;-74
2023/10/17 10:07:22;;;;;;;6.97;5.70;;;;;;;;;;4970509;28;20468;-73
2023/10/17 10:09:49;;;;;;;7.03;5.70;;;;;;;;;;4971018;28;20820;-73
2023/10/17 10:12:18;;;;;;;7.83;6.70;;;;;;;;;;4971242;28;20496;-73
2023/10/17 10:14:49;;;;;;;8.03;6.10;;;;;;;;;;4970808;28;20461;-73
2023/10/17 10:17:17;;;;;;;10.07;5.43;;;;;;;;;;4970641;28;20472;-74
2023/10/17 10:20:04;;;;;;;8.63;5.87;;;;;;;;;;4970413;28;20985;-74
2023/10/17 10:22:50;;;;;;;6.97;6.37;;;;;;;;;;4970528;28;20854;-73
2023/10/17 10:25:17;;;;;;;7.60;6.10;;;;;;;;;;4970302;28;20973;-73
2023/10/17 10:27:46;;;;;;;6.20;5.60;;;;;;;;;;4969408;28;20912;-73
2023/10/17 10:30:33;;;;;;;10.43;6.10;;;;;;;;;;4968126;28;20461;-73
2023/10/17 10:33:01;;;;;;;7.23;5.87;;;;;;;;;;4961533;28;20466;-73
2023/10/17 10:35:28;;;;;;;12.67;6.27;;;;;;;;;;4969499;28;20449;-73
2023/10/17 10:37:56;;;;;;;11.40;5.70;;;;;;;;;;4959543;28;20449;-73
2023/10/17 10:40:24;;;;;;;7.03;5.97;;;;;;;;;;4968569;28;20457;-73
2023/10/17 10:42:53;;;;;;;6.17;5.57;;;;;;;;;;4968755;28;20853;-73
2023/10/17 10:45:24;;;;;;;5.70;4.67;;;;;;;;;;4968473;28;20558;-73
2023/10/17 10:47:57;;;;;;;8.23;6.80;;;;;;;;;;4971214;28;20567;-73
2023/10/17 10:50:26;;;;;;;6.00;5.40;;;;;;;;;;4972144;28;20487;-74
2023/10/17 10:52:54;;;;;;;10.43;6.47;;;;;;;;;;4964308;28;20461;-73
2023/10/17 10:55:21;;;;;;;6.13;5.47;;;;;;;;;;4971775;28;20449;-74
2023/10/17 10:57:48;;;;;;;6.57;5.43;;;;;;;;;;4993919;28;20477;-73
2023/10/17 11:00:19;;;;;;;11.93;6.43;;;;;;;;;;4971811;28;20464;-73
2023/10/17 11:02:47;;;;;;;8.47;7.50;;;;;;;;;;4972039;28;20999;-73
2023/10/17 11:05:15;;;;;;;6.30;5.80;;;;;;;;;;4972089;28;20492;-73
2023/10/17 11:07:44;;;;;;;7.13;5.70;;;;;;;;;;4972091;28;20464;-73
2023/10/17 11:10:13;;;;;;;8.10;7.13;;;;;;;;;;4971957;28;20538;-73
2023/10/17 11:12:42;;;;;;;11.40;10.00;;;;;;;;;;4972212;28;20493;-73
2023/10/17 11:15:14;;;;;;;8.33;6.27;;;;;;;;;;4971496;28;20564;-73
2023/10/17 11:17:43;;;;;;;9.53;7.20;;;;;;;;;;4971699;28;20500;-73
2023/10/17 11:20:16;;;;;;;13.90;7.63;;;;;;;;;;4971568;28;20457;-73
2023/10/17 11:22:44;;;;;;;9.73;7.00;;;;;;;;;;4971525;28;20477;-73
2023/10/17 11:25:15;;;;;;;8.00;6.83;;;;;;;;;;4972391;28;20556;-73
2023/10/17 11:27:53;;;;;;;11.30;9.03;;;;;;;;;;4972654;28;20543;-73
2023/10/17 11:30:20;;;;;;;7.93;6.53;;;;;;;;;;4973168;28;20478;-73
2023/10/17 11:32:49;;;;;;;9.73;6.13;;;;;;;;;;4972863;28;20453;-73
2023/10/17 11:35:29;;;;;;;6.43;5.83;;;;;;;;;;4972932;28;21004;-74
2023/10/17 11:37:57;;;;;;;8.03;7.23;;;;;;;;;;4972650;28;20554;-73
2023/10/17 11:40:30;;;;;;;6.80;5.47;;;;;;;;;;4972400;28;20464;-73
2023/10/17 11:42:59;;;;;;;9.40;7.27;;;;;;;;;;4965194;28;20460;-73
2023/10/17 11:45:34;;;;;;;8.50;5.90;;;;;;;;;;4972760;28;21021;-73
2023/10/17 11:48:14;;;;;;;6.03;5.43;;;;;;;;;;4965912;28;20466;-73
2023/10/17 11:50:41;;;;;;;12.03;5.57;;;;;;;;;;4972139;28;21061;-73
2023/10/17 11:53:13;;;;;;;10.17;6.40;;;;;;;;;;4972392;28;20902;-73
2023/10/17 11:55:46;;;;;;;6.10;5.50;;;;;;;;;;4972477;28;20457;-73
2023/10/17 11:58:24;;;;;;;7.87;5.90;;;;;;;;;;4972291;28;21003;-73
2023/10/17 12:00:52;;;;;;;9.27;5.50;;;;;;;;;;4972411;28;20790;-73
2023/10/17 12:03:20;;;;;;;10.30;6.10;;;;;;;;;;4972342;28;21028;-73
2023/10/17 12:05:48;;;;;;;10.30;5.40;;;;;;;;;;4972391;28;20500;-73
2023/10/17 12:08:22;;;;;;;7.00;5.60;;;;;;;;;;4972359;28;20979;-73
2023/10/17 12:10:53;;;;;;;7.50;5.40;;;;;;;;;;4972443;28;20504;-74
2023/10/17 12:13:21;;;;;;;6.13;5.40;;;;;;;;;;4972164;28;20469;-74
2023/10/17 12:15:49;;;;;;;6.67;6.07;;;;;;;;;;4971846;28;20494;-74
2023/10/17 12:18:19;;;;;;;7.47;6.37;;;;;;;;;;4980304;28;20889;-74
2023/10/17 12:20:49;;;;;;;7.83;6.37;;;;;;;;;;4972041;28;20943;-74
2023/10/17 12:23:18;;;;;;;13.10;8.40;;;;;;;;;;4972006;28;20970;-74
2023/10/17 12:25:46;;;;;;;6.67;5.53;;;;;;;;;;4972119;28;20492;-74
2023/10/17 12:28:16;;;;;;;11.30;6.40;;;;;;;;;;4971946;28;20460;-74
2023/10/17 12:30:44;;;;;;;6.90;6.20;;;;;;;;;;4971974;28;20481;-74
2023/10/17 12:33:22;;;;;;;8.23;7.20;;;;;;;;;;4971915;28;20495;-74
2023/10/17 12:35:52;;;;;;;6.33;5.73;;;;;;;;;;4972165;28;20556;-75
2023/10/17 12:38:25;;;;;;;7.00;6.10;;;;;;;;;;4971645;28;20475;-75
2023/10/17 12:40:54;;;;;;;7.77;6.80;;;;;;;;;;4996708;28;20484;-76
2023/10/17 12:43:22;;;;;;;12.57;6.83;;;;;;;;;;4971991;28;20451;-75
2023/10/17 12:45:50;;;;;;;11.40;7.13;;;;;;;;;;4971685;28;20511;-75
2023/10/17 12:48:18;;;;;;;9.63;7.20;;;;;;;;;;4971900;28;20457;-76
2023/10/17 12:50:45;;;;;;;7.73;7.03;;;;;;;;;;4971484;28;20517;-75
2023/10/17 12:53:14;;;;;;;9.87;6.30;;;;;;;;;;4971616;28;20468;-75
2023/10/17 12:55:41;;;;;;;10.13;6.73;;;;;;;;;;4971553;28;20449;-75
2023/10/17 12:58:11;;;;;;;9.73;7.30;;;;;;;;;;4971809;28;20453;-75
2023/10/17 13:00:39;;;;;;;7.20;6.50;;;;;;;;;;4971853;28;20465;-74
2023/10/17 13:03:07;;;;;;;16.00;6.57;;;;;;;;;;4971747;28;20479;-75
2023/10/17 13:05:34;;;;;;;10.37;6.77;;;;;;;;;;4971389;28;20569;-75
2023/10/17 13:08:02;;;;;;;7.90;7.20;;;;;;;;;;4971498;28;20552;-74
2023/10/17 13:10:31;;;;;;;18.50;7.00;;;;;;;;;;4970415;28;20472;-75
2023/10/17 13:12:59;;;;;;;23.80;7.60;;;;;;;;;;4971627;28;20461;-75
2023/10/17 13:15:28;;;;;;;13.80;6.73;;;;;;;;;;4971808;28;20456;-75
2023/10/17 13:17:57;;;;;;;9.87;6.30;;;;;;;;;;4963579;28;20467;-75
2023/10/17 13:20:29;;;;;;;13.63;7.60;;;;;;;;;;4971269;28;21055;-74
2023/10/17 13:22:59;;;;;;;19.83;9.60;;;;;;;;;;4963701;28;20457;-75
2023/10/17 13:25:26;;;;;;;14.00;9.50;;;;;;;;;;4971245;28;20499;-75
2023/10/17 13:27:55;;;;;;;11.03;7.03;;;;;;;;;;4971168;28;20985;-75
2023/10/17 13:30:25;;;;;;;13.60;7.07;;;;;;;;;;4995360;28;20465;-75
2023/10/17 13:32:54;;;;;;;17.33;7.40;;;;;;;;;;4970992;28;20560;-75
2023/10/17 13:35:22;;;;;;;20.03;18.33;;;;;;;;;;4970846;28;20469;-75
2023/10/17 13:37:54;;;;;;;9.50;8.27;;;;;;;;;;4971306;28;20560;-75
2023/10/17 13:40:32;;;;;;;16.27;7.90;;;;;;;;;;4970977;28;20461;-76
2023/10/17 13:43:04;;;;;;;32.13;9.77;;;;;;;;;;4963820;28;20464;-75
2023/10/17 13:45:36;;;;;;;34.47;9.40;;;;;;;;;;4970721;28;20500;-75
2023/10/17 13:48:04;;;;;;;98.00;51.47;;;;;;;;;;4971595;28;20962;-75
2023/10/17 13:50:31;;;;;;;73.77;44.30;;;;;;;;;;4971181;28;20492;-75
2023/10/17 13:53:06;;;;;;;59.83;33.90;;;;;;;;;;4970689;28;20521;-75
2023/10/17 13:55:35;;;;;;;11.30;7.80;;;;;;;;;;4970904;28;20478;-75
2023/10/17 13:58:06;;;;;;;9.07;6.93;;;;;;;;;;4971287;28;20528;-75
2023/10/17 14:00:43;;;;;;;20.20;17.70;;;;;;;;;;4953680;28;20468;-75
2023/10/17 14:03:13;;;;;;;9.80;6.33;;;;;;;;;;4971341;28;20895;-75
2023/10/17 14:05:44;;;;;;;10.40;8.53;;;;;;;;;;4970847;28;20485;-76
2023/10/17 14:08:13;;;;;;;9.07;8.10;;;;;;;;;;4970487;28;20464;-75
2023/10/17 14:10:43;;;;;;;21.37;15.57;;;;;;;;;;4970503;28;20549;-75
2023/10/17 14:13:17;;;;;;;12.90;7.67;;;;;;;;;;4971011;28;20913;-74
2023/10/17 14:15:47;;;;;;;8.43;7.30;;;;;;;;;;4970593;28;20457;-75
2023/10/17 14:18:16;;;;;;;14.77;8.07;;;;;;;;;;4970732;28;20496;-75
2023/10/17 14:23:29;;;;;;;8.63;6.80;;;;;;;;;;4969803;28;20441;-75
2023/10/17 14:26:07;;;;;;;12.40;8.17;;;;;;;;;;4963065;28;20603;-75
2023/10/17 14:28:35;;;;;;;9.70;8.00;;;;;;;;;;4970485;28;20982;-75
2023/10/17 14:31:03;;;;;;;8.37;7.27;;;;;;;;;;4969941;28;20966;-75
2023/10/17 14:33:32;;;;;;;8.00;7.10;;;;;;;;;;4970133;28;20510;-75
2023/10/17 14:36:01;;;;;;;8.80;6.23;;;;;;;;;;4970158;28;20453;-74
2023/10/17 14:38:28;;;;;;;9.00;7.63;;;;;;;;;;4970278;28;20461;-76
2023/10/17 14:40:58;;;;;;;9.67;7.77;;;;;;;;;;4962726;28;20485;-75
2023/10/17 14:43:26;;;;;;;10.50;7.07;;;;;;;;;;4970313;28;20465;-75
2023/10/17 14:45:55;;;;;;;9.23;7.30;;;;;;;;;;4970177;28;21106;-73
2023/10/17 14:48:22;;;;;;;13.00;8.20;;;;;;;;;;4970013;28;20505;-75
2023/10/17 14:50:50;;;;;;;7.83;6.90;;;;;;;;;;4969930;28;20484;-75
2023/10/17 14:53:19;;;;;;;8.70;7.80;;;;;;;;;;4969960;28;20981;-75
2023/10/17 14:55:47;;;;;;;13.83;7.73;;;;;;;;;;4970516;28;20453;-75
2023/10/17 14:58:14;;;;;;;11.57;7.23;;;;;;;;;;4969697;28;20460;-75
2023/10/17 15:00:42;;;;;;;11.67;8.27;;;;;;;;;;4969611;28;20488;-75
2023/10/17 15:03:11;;;;;;;10.23;7.00;;;;;;;;;;4969723;28;20460;-75
2023/10/17 15:05:41;;;;;;;11.00;7.90;;;;;;;;;;4995015;28;20497;-75
2023/10/17 15:08:11;;;;;;;11.00;7.33;;;;;;;;;;4970616;28;20459;-75
2023/10/17 15:10:39;;;;;;;10.37;8.80;;;;;;;;;;4969875;28;20818;-75
2023/10/17 15:13:08;;;;;;;7.60;6.50;;;;;;;;;;4969745;28;20457;-75
2023/10/17 15:15:36;;;;;;;11.00;7.80;;;;;;;;;;4969917;28;20536;-75
2023/10/17 15:18:04;;;;;;;13.03;8.73;;;;;;;;;;4970019;28;20493;-75
2023/10/17 15:20:33;;;;;;;9.13;8.17;;;;;;;;;;4969340;28;20465;-75
2023/10/17 15:23:03;;;;;;;9.50;8.50;;;;;;;;;;4969520;28;20461;-75
2023/10/17 15:25:30;;;;;;;13.03;8.07;;;;;;;;;;4969528;28;20543;-75
2023/10/17 15:27:59;;;;;;;12.27;7.30;;;;;;;;;;4969500;28;20469;-73
2023/10/17 15:30:29;;;;;;;11.30;8.60;;;;;;;;;;4969225;28;20467;-75
2023/10/17 15:32:56;;;;;;;12.43;8.77;;;;;;;;;;4971069;28;20540;-74
2023/10/17 15:35:24;;;;;;;13.80;8.00;;;;;;;;;;4972930;28;20460;-72
2023/10/17 15:37:53;;;;;;;13.07;11.17;;;;;;;;;;4972795;28;21004;-75
2023/10/17 15:40:21;;;;;;;50.13;18.13;;;;;;;;;;4973427;28;20466;-74
2023/10/17 15:42:49;;;;;;;26.23;17.87;;;;;;;;;;4972671;28;20468;-73
2023/10/17 15:45:17;;;;;;;11.27;7.73;;;;;;;;;;4972589;28;20461;-75
2023/10/17 15:47:44;;;;;;;8.27;7.43;;;;;;;;;;4972566;28;20471;-75
2023/10/17 15:50:12;;;;;;;9.70;8.63;;;;;;;;;;4972557;28;20457;-73
2023/10/17 15:52:40;;;;;;;13.47;8.90;;;;;;;;;;4972361;28;21021;-75
2023/10/17 15:55:11;;;;;;;13.80;9.47;;;;;;;;;;4973770;28;20460;-74
2023/10/17 15:57:39;;;;;;;18.30;14.43;;;;;;;;;;4972576;28;20464;-74
2023/10/17 16:00:13;;;;;;;39.73;27.87;;;;;;;;;;4972241;28;20491;-74
2023/10/17 16:02:40;;;;;;;19.23;15.60;;;;;;;;;;4972325;28;20901;-74
2023/10/17 16:05:10;;;;;;;13.07;10.63;;;;;;;;;;4972172;28;20512;-74
2023/10/17 16:07:37;;;;;;;20.40;12.97;;;;;;;;;;4972209;28;20475;-73
2023/10/17 16:10:06;;;;;;;10.53;9.27;;;;;;;;;;4973128;28;20469;-73
2023/10/17 16:12:35;;;;;;;18.50;13.27;;;;;;;;;;4972386;28;20986;-73
2023/10/17 16:15:06;;;;;;;12.70;10.70;;;;;;;;;;4973462;28;20845;-73
2023/10/17 16:17:33;;;;;;;12.20;9.00;;;;;;;;;;4973265;28;20839;-73
2023/10/17 16:20:00;;;;;;;9.73;8.50;;;;;;;;;;4973361;28;20463;-73
2023/10/17 16:22:27;;;;;;;15.33;9.13;;;;;;;;;;4973076;28;20491;-73